Report METAR

 

KSJC - San Jose, California, USA
Distance from station: NE 14km
Dati ricevuti: 28/01/2023 18:02
Mist, Parz. nuvoloso
Mist, Parz. nuvoloso
 Vento da SSO
Vento: SSO 6 km/h
Temperatura: 9°C
P.to Rugiada: 8°C
Umidità: 94%
Barometro: 1017.9 hPa
Summary: Mist
Nuvole: Parz. nuvoloso
Visibility: 10 km
Cloud details: Few Clouds 152 m
Parz. nuvoloso 305 m
2023/01/28 17:02 KSJC 281702Z 21003KT 6SM BR FEW005 SCT010 09/08 A3006 RMK AO2 T00890078
KNUQ - Moffett Nas/Mtn, California, USA
Distance from station: N 14km
Dati ricevuti: 28/01/2023 18:15
Mist, Coperto
Mist, Coperto
 Vento da calmo
Vento: Calma
Temperatura: 7°C
P.to Rugiada: 7°C
Umidità: 100%
Barometro: 1018.3 hPa
Summary: Mist
Nuvole: Coperto
Visibility: 4 km
Cloud details: Coperto 122 m
2023/01/28 17:15 KNUQ 281715Z AUTO 00000KT 2 1/2SM BR OVC004 07/07 A3007 RMK AO2
 
KPAO - Palo Alto, California, USA
Distance from station: NNO 23km
Dati ricevuti: 28/01/2023 17:47
Coperto
Coperto
 Vento da calmo
Vento: Calma
Temperatura: 7°C
P.to Rugiada: 7°C
Umidità: 100%
Barometro: 1018.3 hPa
Nuvole: Coperto
Visibility: 0.1 km
Cloud details: Coperto 30 m
2023/01/28 16:47 KPAO 281647Z 00000KT 1/16SM VV001 07/07 A3007
KRHV - San Jose/Reid, California, USA
Distance from station: ENE 19km
Dati ricevuti: 28/01/2023 17:47
Few Clouds
Few Clouds
 Vento da calmo
Vento: Calma
Temperatura: 8°C
P.to Rugiada: 6°C
Umidità: 87%
Barometro: 1018.3 hPa
Nuvole: Few Clouds
Visibility: 16 km
Cloud details: Few Clouds 244 m
2023/01/28 16:47 KRHV 281647Z 00000KT 10SM FEW008 08/06 A3007
 
KOAK - Oakland, California, USA
Distance from station: NNO 50km
Dati ricevuti: 28/01/2023 17:53
Nebbia, Coperto
Nebbia, Coperto
 Vento da E
Vento: E 7 km/h
Temperatura: 7°C
Temperatura Vento: 6°C
P.to Rugiada: 7°C
Umidità: 100%
Barometro: 1018.3 hPa
Summary: Nebbia
Nuvole: Coperto
Visibility: 0.2 km
Cloud details: Coperto 30 m
2023/01/28 16:53 KOAK 281653Z 09004KT 1/8SM FG VV001 07/07 A3007 RMK AO2 SLP180 T00670067 RVRNO
KSQL - San Carlos Airpo, California, USA
Distance from station: NO 34km
Dati ricevuti: 28/01/2023 17:47
Nebbia, Coperto
Nebbia, Coperto
 Vento da calmo
Vento: Calma
Temperatura: 5°C
P.to Rugiada: 5°C
Umidità: 100%
Barometro: 1018.3 hPa
Summary: Nebbia
Nuvole: Coperto
Visibility: 0.4 km
Cloud details: Coperto 30 m
2023/01/28 16:47 KSQL 281647Z 00000KT 1/4SM FG VV001 05/05 A3007
 
KSFO - San Francisco, California, USA
Distance from station: NO 49km
Dati ricevuti: 28/01/2023 17:56
Nebbia, Coperto
Nebbia, Coperto
 Vento da calmo
Vento: Calma
Temperatura: 8°C
P.to Rugiada: 8°C
Umidità: 100%
Barometro: 1017.9 hPa
Summary: Nebbia
Nuvole: Coperto
Visibility: 0.4 km
Cloud details: Coperto 61 m
2023/01/28 16:56 KSFO 281656Z 00000KT 1/4SM R28R/1000V1400FT FG VV002 08/08 A3006 RMK AO2 SLP179 T00780078
KE16 - San Martin, California, USA
Distance from station: ESE 43km
Dati ricevuti: 28/01/2023 18:15
Coperto
Coperto
 Vento da calmo
Vento: Calma
Temperatura: 7°C
P.to Rugiada: 6°C
Umidità: 93%
Barometro: 1018.6 hPa
Nuvole: Coperto
Visibility: 11 km
Cloud details: Coperto 244 m
2023/01/28 17:15 KE16 281715Z AUTO 00000KT 7SM OVC008 07/06 A3008 RMK AO2 PWINO PNO
 
KWVI - Watsonville, California, USA
Distance from station: SSE 44km
Dati ricevuti: 28/01/2023 17:53
Sereno
Sereno
 Vento da SO
Vento: SO 6 km/h
Temperatura: 7°C
P.to Rugiada: 7°C
Umidità: 100%
Barometro: 1017.9 hPa
Nuvole: Sereno
Visibility: 16 km
2023/01/28 16:53 KWVI 281653Z AUTO 23003KT 10SM CLR 07/07 A3006 RMK AO2 SLP179 T00720067
KHAF - Half Moon Bay, California, USA
Distance from station: ONO 50km
Dati ricevuti: 28/01/2023 18:15
Mist, Coperto
Mist, Coperto
 Vento da SSE
Vento: SSE 6 km/h
Temperatura: 10°C
P.to Rugiada: 9°C
Umidità: 94%
Barometro: 1017.9 hPa
Summary: Mist
Nuvole: Coperto
Visibility: 6 km
Cloud details: Coperto 396 m
2023/01/28 17:15 KHAF 281715Z AUTO 16003KT 4SM BR OVC013 10/09 A3006 RMK AO2
 
KHWD - Hayward, California, USA
Distance from station: N 44km
Dati ricevuti: 28/01/2023 17:54
Mist, Coperto
Mist, Coperto
 Vento da NE
Vento: NE 7 km/h
Temperatura: 7°C
Temperatura Vento: 6°C
P.to Rugiada: 7°C
Umidità: 100%
Barometro: 1017.9 hPa
Summary: Mist
Nuvole: Coperto
Visibility: 1.2 km
Cloud details: Coperto 61 m
2023/01/28 16:54 KHWD 281654Z 05004KT 3/4SM BR OVC002 07/07 A3006 RMK AO2 SLP188 T00670067
KLVK - Livermore, California, USA
Distance from station: NNE 51km
Dati ricevuti: 28/01/2023 17:53
Nebbia, Coperto
Nebbia, Coperto
 Vento da calmo
Vento: Calma
Temperatura: 2°C
P.to Rugiada: 2°C
Umidità: 100%
Barometro: 1017.6 hPa
Summary: Nebbia
Nuvole: Coperto
Visibility: 0.4 km
Cloud details: Coperto 61 m
2023/01/28 16:53 KLVK 281653Z 00000KT M1/4SM FG VV002 02/02 A3005 RMK AO2 SLP176 T00220022 $